<?xml version="1.0" encoding="UTF-8" standalone="no" ?>
<gpx xmlns="http://www.topografix.com/GPX/1/1" xmlns:xsi="http://www.w3.org/2001/XMLSchema-instance" xsi:schemaLocation="http://www.topografix.com/GPX/1/1 http://www.topografix.com/GPX/1/1/gpx.xsd" version="1.1" creator="VisuGPX - https://www.visugpx.com">
  <metadata>
    <name>colle_du_rouet_42km</name>
  </metadata>
  <trk>
    <name><![CDATA[15591565-Colle du Rouet 42km]]></name>
    <extensions>
      <line xmlns="http://www.topografix.com/GPX/gpx_style/0/2">
        <color>0000FF</color>
        <width>4</width>
      </line>
    </extensions>
    <trkseg>
      <trkpt lat="43.49045" lon="6.71166">
        <ele>71</ele>
        <time>2022-10-22T10:04:47Z</time>
      </trkpt>
      <trkpt lat="43.49032" lon="6.71134">
        <ele>70</ele>
        <time>2022-10-22T10:04:53Z</time>
      </trkpt>
      <trkpt lat="43.48993" lon="6.71151">
        <ele>73</ele>
        <time>2022-10-22T10:05:03Z</time>
      </trkpt>
      <trkpt lat="43.48964" lon="6.71233">
        <ele>78</ele>
        <time>2022-10-22T10:05:18Z</time>
      </trkpt>
      <trkpt lat="43.48777" lon="6.71421">
        <ele>81</ele>
        <time>2022-10-22T10:06:12Z</time>
      </trkpt>
      <trkpt lat="43.48808" lon="6.71318">
        <ele>82</ele>
        <time>2022-10-22T10:06:31Z</time>
      </trkpt>
      <trkpt lat="43.48814" lon="6.71149">
        <ele>77</ele>
        <time>2022-10-22T10:07:00Z</time>
      </trkpt>
      <trkpt lat="43.4875" lon="6.7111">
        <ele>73</ele>
        <time>2022-10-22T10:07:16Z</time>
      </trkpt>
      <trkpt lat="43.48786" lon="6.70924">
        <ele>62</ele>
        <time>2022-10-22T10:07:49Z</time>
      </trkpt>
      <trkpt lat="43.48794" lon="6.70752">
        <ele>57</ele>
        <time>2022-10-22T10:08:18Z</time>
      </trkpt>
      <trkpt lat="43.48903" lon="6.70718">
        <ele>52</ele>
        <time>2022-10-22T10:08:44Z</time>
      </trkpt>
      <trkpt lat="43.4885" lon="6.70634">
        <ele>52</ele>
        <time>2022-10-22T10:09:03Z</time>
      </trkpt>
      <trkpt lat="43.48904" lon="6.70548">
        <ele>48</ele>
        <time>2022-10-22T10:09:22Z</time>
      </trkpt>
      <trkpt lat="43.49003" lon="6.7058">
        <ele>50</ele>
        <time>2022-10-22T10:09:46Z</time>
      </trkpt>
      <trkpt lat="43.49143" lon="6.70385">
        <ele>52</ele>
        <time>2022-10-22T10:10:32Z</time>
      </trkpt>
      <trkpt lat="43.49238" lon="6.70383">
        <ele>53</ele>
        <time>2022-10-22T10:10:55Z</time>
      </trkpt>
      <trkpt lat="43.49294" lon="6.70275">
        <ele>57</ele>
        <time>2022-10-22T10:11:17Z</time>
      </trkpt>
      <trkpt lat="43.49309" lon="6.7037">
        <ele>57</ele>
        <time>2022-10-22T10:11:34Z</time>
      </trkpt>
      <trkpt lat="43.49382" lon="6.70381">
        <ele>59</ele>
        <time>2022-10-22T10:11:51Z</time>
      </trkpt>
      <trkpt lat="43.49406" lon="6.70473">
        <ele>58</ele>
        <time>2022-10-22T10:12:07Z</time>
      </trkpt>
      <trkpt lat="43.49438" lon="6.70385">
        <ele>60</ele>
        <time>2022-10-22T10:12:24Z</time>
      </trkpt>
      <trkpt lat="43.49593" lon="6.70306">
        <ele>64</ele>
        <time>2022-10-22T10:13:03Z</time>
      </trkpt>
      <trkpt lat="43.49751" lon="6.70297">
        <ele>67</ele>
        <time>2022-10-22T10:13:40Z</time>
      </trkpt>
      <trkpt lat="43.49876" lon="6.70331">
        <ele>75</ele>
        <time>2022-10-22T10:14:09Z</time>
      </trkpt>
      <trkpt lat="43.50078" lon="6.7034">
        <ele>80</ele>
        <time>2022-10-22T10:14:56Z</time>
      </trkpt>
      <trkpt lat="43.50148" lon="6.70381">
        <ele>83</ele>
        <time>2022-10-22T10:15:14Z</time>
      </trkpt>
      <trkpt lat="43.50226" lon="6.70475">
        <ele>88</ele>
        <time>2022-10-22T10:15:38Z</time>
      </trkpt>
      <trkpt lat="43.50379" lon="6.70512">
        <ele>95</ele>
        <time>2022-10-22T10:16:15Z</time>
      </trkpt>
      <trkpt lat="43.50444" lon="6.70572">
        <ele>98</ele>
        <time>2022-10-22T10:16:33Z</time>
      </trkpt>
      <trkpt lat="43.50474" lon="6.70516">
        <ele>99</ele>
        <time>2022-10-22T10:16:45Z</time>
      </trkpt>
      <trkpt lat="43.5061" lon="6.70606">
        <ele>106</ele>
        <time>2022-10-22T10:17:20Z</time>
      </trkpt>
      <trkpt lat="43.50674" lon="6.70587">
        <ele>110</ele>
        <time>2022-10-22T10:17:35Z</time>
      </trkpt>
      <trkpt lat="43.50702" lon="6.70619">
        <ele>112</ele>
        <time>2022-10-22T10:17:44Z</time>
      </trkpt>
      <trkpt lat="43.50754" lon="6.70582">
        <ele>119</ele>
        <time>2022-10-22T10:17:57Z</time>
      </trkpt>
      <trkpt lat="43.50746" lon="6.70458">
        <ele>129</ele>
        <time>2022-10-22T10:18:19Z</time>
      </trkpt>
      <trkpt lat="43.50827" lon="6.70363">
        <ele>135</ele>
        <time>2022-10-22T10:18:43Z</time>
      </trkpt>
      <trkpt lat="43.50944" lon="6.70196">
        <ele>141</ele>
        <time>2022-10-22T10:19:23Z</time>
      </trkpt>
      <trkpt lat="43.50926" lon="6.70095">
        <ele>135</ele>
        <time>2022-10-22T10:19:40Z</time>
      </trkpt>
      <trkpt lat="43.51032" lon="6.69994">
        <ele>143</ele>
        <time>2022-10-22T10:20:10Z</time>
      </trkpt>
      <trkpt lat="43.5107" lon="6.70009">
        <ele>148</ele>
        <time>2022-10-22T10:20:20Z</time>
      </trkpt>
      <trkpt lat="43.51099" lon="6.69936">
        <ele>150</ele>
        <time>2022-10-22T10:20:34Z</time>
      </trkpt>
      <trkpt lat="43.51028" lon="6.69572">
        <ele>127</ele>
        <time>2022-10-22T10:21:38Z</time>
      </trkpt>
      <trkpt lat="43.51085" lon="6.69471">
        <ele>134</ele>
        <time>2022-10-22T10:21:59Z</time>
      </trkpt>
      <trkpt lat="43.51065" lon="6.69402">
        <ele>134</ele>
        <time>2022-10-22T10:22:12Z</time>
      </trkpt>
      <trkpt lat="43.51031" lon="6.69265">
        <ele>132</ele>
        <time>2022-10-22T10:22:36Z</time>
      </trkpt>
      <trkpt lat="43.51093" lon="6.69241">
        <ele>137</ele>
        <time>2022-10-22T10:22:51Z</time>
      </trkpt>
      <trkpt lat="43.51099" lon="6.69085">
        <ele>137</ele>
        <time>2022-10-22T10:23:18Z</time>
      </trkpt>
      <trkpt lat="43.51141" lon="6.6908">
        <ele>139</ele>
        <time>2022-10-22T10:23:28Z</time>
      </trkpt>
      <trkpt lat="43.51217" lon="6.69018">
        <ele>145</ele>
        <time>2022-10-22T10:23:48Z</time>
      </trkpt>
      <trkpt lat="43.51196" lon="6.68733">
        <ele>151</ele>
        <time>2022-10-22T10:24:37Z</time>
      </trkpt>
      <trkpt lat="43.51146" lon="6.68643">
        <ele>148</ele>
        <time>2022-10-22T10:24:56Z</time>
      </trkpt>
      <trkpt lat="43.5118" lon="6.68624">
        <ele>150</ele>
        <time>2022-10-22T10:25:05Z</time>
      </trkpt>
      <trkpt lat="43.51229" lon="6.68505">
        <ele>149</ele>
        <time>2022-10-22T10:25:28Z</time>
      </trkpt>
      <trkpt lat="43.51325" lon="6.68447">
        <ele>154</ele>
        <time>2022-10-22T10:25:52Z</time>
      </trkpt>
      <trkpt lat="43.51332" lon="6.68385">
        <ele>149</ele>
        <time>2022-10-22T10:26:03Z</time>
      </trkpt>
      <trkpt lat="43.51337" lon="6.68272">
        <ele>148</ele>
        <time>2022-10-22T10:26:22Z</time>
      </trkpt>
      <trkpt lat="43.51278" lon="6.68252">
        <ele>140</ele>
        <time>2022-10-22T10:26:36Z</time>
      </trkpt>
      <trkpt lat="43.51249" lon="6.68186">
        <ele>135</ele>
        <time>2022-10-22T10:26:49Z</time>
      </trkpt>
      <trkpt lat="43.51232" lon="6.67955">
        <ele>124</ele>
        <time>2022-10-22T10:27:29Z</time>
      </trkpt>
      <trkpt lat="43.51186" lon="6.6796">
        <ele>123</ele>
        <time>2022-10-22T10:27:39Z</time>
      </trkpt>
      <trkpt lat="43.51241" lon="6.68149">
        <ele>135</ele>
        <time>2022-10-22T10:28:14Z</time>
      </trkpt>
      <trkpt lat="43.51165" lon="6.68109">
        <ele>140</ele>
        <time>2022-10-22T10:28:33Z</time>
      </trkpt>
      <trkpt lat="43.51096" lon="6.6803">
        <ele>141</ele>
        <time>2022-10-22T10:28:54Z</time>
      </trkpt>
      <trkpt lat="43.51035" lon="6.67906">
        <ele>126</ele>
        <time>2022-10-22T10:29:19Z</time>
      </trkpt>
      <trkpt lat="43.50968" lon="6.6789">
        <ele>127</ele>
        <time>2022-10-22T10:29:35Z</time>
      </trkpt>
      <trkpt lat="43.50851" lon="6.67785">
        <ele>114</ele>
        <time>2022-10-22T10:30:08Z</time>
      </trkpt>
      <trkpt lat="43.50736" lon="6.67841">
        <ele>110</ele>
        <time>2022-10-22T10:30:36Z</time>
      </trkpt>
      <trkpt lat="43.50625" lon="6.67944">
        <ele>105</ele>
        <time>2022-10-22T10:31:07Z</time>
      </trkpt>
      <trkpt lat="43.50682" lon="6.67783">
        <ele>101</ele>
        <time>2022-10-22T10:31:38Z</time>
      </trkpt>
      <trkpt lat="43.50739" lon="6.67642">
        <ele>98</ele>
        <time>2022-10-22T10:32:05Z</time>
      </trkpt>
      <trkpt lat="43.50734" lon="6.67598">
        <ele>95</ele>
        <time>2022-10-22T10:32:13Z</time>
      </trkpt>
      <trkpt lat="43.50765" lon="6.67492">
        <ele>92</ele>
        <time>2022-10-22T10:32:32Z</time>
      </trkpt>
      <trkpt lat="43.50759" lon="6.67455">
        <ele>91</ele>
        <time>2022-10-22T10:32:38Z</time>
      </trkpt>
      <trkpt lat="43.50779" lon="6.67423">
        <ele>89</ele>
        <time>2022-10-22T10:32:46Z</time>
      </trkpt>
      <trkpt lat="43.50765" lon="6.67366">
        <ele>90</ele>
        <time>2022-10-22T10:32:56Z</time>
      </trkpt>
      <trkpt lat="43.50678" lon="6.67248">
        <ele>88</ele>
        <time>2022-10-22T10:33:24Z</time>
      </trkpt>
      <trkpt lat="43.50635" lon="6.67207">
        <ele>83</ele>
        <time>2022-10-22T10:33:36Z</time>
      </trkpt>
      <trkpt lat="43.50576" lon="6.67061">
        <ele>76</ele>
        <time>2022-10-22T10:34:05Z</time>
      </trkpt>
      <trkpt lat="43.50549" lon="6.67055">
        <ele>75</ele>
        <time>2022-10-22T10:34:11Z</time>
      </trkpt>
      <trkpt lat="43.5058" lon="6.66998">
        <ele>73</ele>
        <time>2022-10-22T10:34:23Z</time>
      </trkpt>
      <trkpt lat="43.50566" lon="6.66955">
        <ele>73</ele>
        <time>2022-10-22T10:34:31Z</time>
      </trkpt>
      <trkpt lat="43.5057" lon="6.66824">
        <ele>72</ele>
        <time>2022-10-22T10:34:53Z</time>
      </trkpt>
      <trkpt lat="43.50677" lon="6.66724">
        <ele>76</ele>
        <time>2022-10-22T10:35:24Z</time>
      </trkpt>
      <trkpt lat="43.50713" lon="6.66726">
        <ele>77</ele>
        <time>2022-10-22T10:35:32Z</time>
      </trkpt>
      <trkpt lat="43.50767" lon="6.668">
        <ele>82</ele>
        <time>2022-10-22T10:35:50Z</time>
      </trkpt>
      <trkpt lat="43.50797" lon="6.66814">
        <ele>85</ele>
        <time>2022-10-22T10:35:57Z</time>
      </trkpt>
      <trkpt lat="43.50818" lon="6.66796">
        <ele>86</ele>
        <time>2022-10-22T10:36:03Z</time>
      </trkpt>
      <trkpt lat="43.5087" lon="6.66796">
        <ele>91</ele>
        <time>2022-10-22T10:36:15Z</time>
      </trkpt>
      <trkpt lat="43.50979" lon="6.6679">
        <ele>97</ele>
        <time>2022-10-22T10:36:41Z</time>
      </trkpt>
      <trkpt lat="43.51067" lon="6.66797">
        <ele>101</ele>
        <time>2022-10-22T10:37:01Z</time>
      </trkpt>
      <trkpt lat="43.51133" lon="6.66837">
        <ele>107</ele>
        <time>2022-10-22T10:37:18Z</time>
      </trkpt>
      <trkpt lat="43.51137" lon="6.66837">
        <ele>107</ele>
        <time>2022-10-22T10:37:19Z</time>
      </trkpt>
      <trkpt lat="43.51187" lon="6.66797">
        <ele>113</ele>
        <time>2022-10-22T10:37:32Z</time>
      </trkpt>
      <trkpt lat="43.51209" lon="6.6668">
        <ele>117</ele>
        <time>2022-10-22T10:37:53Z</time>
      </trkpt>
      <trkpt lat="43.51283" lon="6.66636">
        <ele>131</ele>
        <time>2022-10-22T10:38:12Z</time>
      </trkpt>
      <trkpt lat="43.51304" lon="6.66815">
        <ele>143</ele>
        <time>2022-10-22T10:38:42Z</time>
      </trkpt>
      <trkpt lat="43.51326" lon="6.6682">
        <ele>149</ele>
        <time>2022-10-22T10:38:48Z</time>
      </trkpt>
      <trkpt lat="43.51382" lon="6.66623">
        <ele>157</ele>
        <time>2022-10-22T10:39:24Z</time>
      </trkpt>
      <trkpt lat="43.51396" lon="6.6649">
        <ele>163</ele>
        <time>2022-10-22T10:39:46Z</time>
      </trkpt>
      <trkpt lat="43.51497" lon="6.66296">
        <ele>189</ele>
        <time>2022-10-22T10:40:27Z</time>
      </trkpt>
      <trkpt lat="43.51501" lon="6.66312">
        <ele>190</ele>
        <time>2022-10-22T10:40:30Z</time>
      </trkpt>
      <trkpt lat="43.51497" lon="6.66469">
        <ele>194</ele>
        <time>2022-10-22T10:40:56Z</time>
      </trkpt>
      <trkpt lat="43.51526" lon="6.66605">
        <ele>195</ele>
        <time>2022-10-22T10:41:20Z</time>
      </trkpt>
      <trkpt lat="43.5154" lon="6.66597">
        <ele>197</ele>
        <time>2022-10-22T10:41:24Z</time>
      </trkpt>
      <trkpt lat="43.51532" lon="6.66531">
        <ele>202</ele>
        <time>2022-10-22T10:41:35Z</time>
      </trkpt>
      <trkpt lat="43.51562" lon="6.66511">
        <ele>210</ele>
        <time>2022-10-22T10:41:43Z</time>
      </trkpt>
      <trkpt lat="43.51618" lon="6.66494">
        <ele>217</ele>
        <time>2022-10-22T10:41:56Z</time>
      </trkpt>
      <trkpt lat="43.51637" lon="6.66455">
        <ele>221</ele>
        <time>2022-10-22T10:42:04Z</time>
      </trkpt>
      <trkpt lat="43.5166" lon="6.66359">
        <ele>228</ele>
        <time>2022-10-22T10:42:21Z</time>
      </trkpt>
      <trkpt lat="43.5171" lon="6.66279">
        <ele>231</ele>
        <time>2022-10-22T10:42:39Z</time>
      </trkpt>
      <trkpt lat="43.51754" lon="6.66158">
        <ele>240</ele>
        <time>2022-10-22T10:43:02Z</time>
      </trkpt>
      <trkpt lat="43.51771" lon="6.661">
        <ele>245</ele>
        <time>2022-10-22T10:43:13Z</time>
      </trkpt>
      <trkpt lat="43.51849" lon="6.66157">
        <ele>250</ele>
        <time>2022-10-22T10:43:33Z</time>
      </trkpt>
      <trkpt lat="43.51817" lon="6.66216">
        <ele>245</ele>
        <time>2022-10-22T10:43:46Z</time>
      </trkpt>
      <trkpt lat="43.51813" lon="6.66309">
        <ele>240</ele>
        <time>2022-10-22T10:44:02Z</time>
      </trkpt>
      <trkpt lat="43.51852" lon="6.66398">
        <ele>235</ele>
        <time>2022-10-22T10:44:19Z</time>
      </trkpt>
      <trkpt lat="43.51955" lon="6.66386">
        <ele>252</ele>
        <time>2022-10-22T10:44:43Z</time>
      </trkpt>
      <trkpt lat="43.5196" lon="6.66396">
        <ele>251</ele>
        <time>2022-10-22T10:44:45Z</time>
      </trkpt>
      <trkpt lat="43.51937" lon="6.66438">
        <ele>243</ele>
        <time>2022-10-22T10:44:54Z</time>
      </trkpt>
      <trkpt lat="43.51947" lon="6.6649">
        <ele>243</ele>
        <time>2022-10-22T10:45:03Z</time>
      </trkpt>
      <trkpt lat="43.51917" lon="6.66505">
        <ele>237</ele>
        <time>2022-10-22T10:45:11Z</time>
      </trkpt>
      <trkpt lat="43.51878" lon="6.66574">
        <ele>235</ele>
        <time>2022-10-22T10:45:26Z</time>
      </trkpt>
      <trkpt lat="43.51866" lon="6.6662">
        <ele>235</ele>
        <time>2022-10-22T10:45:34Z</time>
      </trkpt>
      <trkpt lat="43.51844" lon="6.66627">
        <ele>231</ele>
        <time>2022-10-22T10:45:39Z</time>
      </trkpt>
      <trkpt lat="43.51801" lon="6.66697">
        <ele>223</ele>
        <time>2022-10-22T10:45:55Z</time>
      </trkpt>
      <trkpt lat="43.51886" lon="6.66736">
        <ele>231</ele>
        <time>2022-10-22T10:46:16Z</time>
      </trkpt>
      <trkpt lat="43.51977" lon="6.66807">
        <ele>233</ele>
        <time>2022-10-22T10:46:40Z</time>
      </trkpt>
      <trkpt lat="43.52046" lon="6.66899">
        <ele>242</ele>
        <time>2022-10-22T10:47:03Z</time>
      </trkpt>
      <trkpt lat="43.51989" lon="6.66948">
        <ele>234</ele>
        <time>2022-10-22T10:47:18Z</time>
      </trkpt>
      <trkpt lat="43.51961" lon="6.67029">
        <ele>239</ele>
        <time>2022-10-22T10:47:33Z</time>
      </trkpt>
      <trkpt lat="43.51931" lon="6.67056">
        <ele>239</ele>
        <time>2022-10-22T10:47:42Z</time>
      </trkpt>
      <trkpt lat="43.51979" lon="6.67043">
        <ele>245</ele>
        <time>2022-10-22T10:47:53Z</time>
      </trkpt>
      <trkpt lat="43.52036" lon="6.6699">
        <ele>248</ele>
        <time>2022-10-22T10:48:09Z</time>
      </trkpt>
      <trkpt lat="43.52074" lon="6.67019">
        <ele>257</ele>
        <time>2022-10-22T10:48:19Z</time>
      </trkpt>
      <trkpt lat="43.5215" lon="6.66998">
        <ele>266</ele>
        <time>2022-10-22T10:48:37Z</time>
      </trkpt>
      <trkpt lat="43.52218" lon="6.66851">
        <ele>278</ele>
        <time>2022-10-22T10:49:07Z</time>
      </trkpt>
      <trkpt lat="43.52158" lon="6.66801">
        <ele>271</ele>
        <time>2022-10-22T10:49:23Z</time>
      </trkpt>
      <trkpt lat="43.52136" lon="6.6667">
        <ele>275</ele>
        <time>2022-10-22T10:49:46Z</time>
      </trkpt>
      <trkpt lat="43.52198" lon="6.66634">
        <ele>285</ele>
        <time>2022-10-22T10:50:02Z</time>
      </trkpt>
      <trkpt lat="43.5229" lon="6.66751">
        <ele>291</ele>
        <time>2022-10-22T10:50:31Z</time>
      </trkpt>
      <trkpt lat="43.52323" lon="6.66796">
        <ele>294</ele>
        <time>2022-10-22T10:50:42Z</time>
      </trkpt>
      <trkpt lat="43.52346" lon="6.66783">
        <ele>298</ele>
        <time>2022-10-22T10:50:48Z</time>
      </trkpt>
      <trkpt lat="43.52375" lon="6.66756">
        <ele>302</ele>
        <time>2022-10-22T10:50:56Z</time>
      </trkpt>
      <trkpt lat="43.52426" lon="6.66784">
        <ele>307</ele>
        <time>2022-10-22T10:51:09Z</time>
      </trkpt>
      <trkpt lat="43.52448" lon="6.66809">
        <ele>309</ele>
        <time>2022-10-22T10:51:15Z</time>
      </trkpt>
      <trkpt lat="43.52534" lon="6.66767">
        <ele>321</ele>
        <time>2022-10-22T10:51:37Z</time>
      </trkpt>
      <trkpt lat="43.52613" lon="6.66721">
        <ele>328</ele>
        <time>2022-10-22T10:51:57Z</time>
      </trkpt>
      <trkpt lat="43.52659" lon="6.66774">
        <ele>326</ele>
        <time>2022-10-22T10:52:11Z</time>
      </trkpt>
      <trkpt lat="43.5267" lon="6.66733">
        <ele>325</ele>
        <time>2022-10-22T10:52:18Z</time>
      </trkpt>
      <trkpt lat="43.52733" lon="6.66664">
        <ele>322</ele>
        <time>2022-10-22T10:52:37Z</time>
      </trkpt>
      <trkpt lat="43.52917" lon="6.66554">
        <ele>304</ele>
        <time>2022-10-22T10:53:24Z</time>
      </trkpt>
      <trkpt lat="43.52928" lon="6.66406">
        <ele>324</ele>
        <time>2022-10-22T10:53:49Z</time>
      </trkpt>
      <trkpt lat="43.53018" lon="6.66235">
        <ele>303</ele>
        <time>2022-10-22T10:54:25Z</time>
      </trkpt>
      <trkpt lat="43.52979" lon="6.66062">
        <ele>309</ele>
        <time>2022-10-22T10:54:55Z</time>
      </trkpt>
      <trkpt lat="43.52807" lon="6.65914">
        <ele>320</ele>
        <time>2022-10-22T10:55:43Z</time>
      </trkpt>
      <trkpt lat="43.52576" lon="6.65911">
        <ele>307</ele>
        <time>2022-10-22T10:56:37Z</time>
      </trkpt>
      <trkpt lat="43.5253" lon="6.65928">
        <ele>304</ele>
        <time>2022-10-22T10:56:48Z</time>
      </trkpt>
      <trkpt lat="43.52542" lon="6.65854">
        <ele>291</ele>
        <time>2022-10-22T10:57:01Z</time>
      </trkpt>
      <trkpt lat="43.52425" lon="6.65893">
        <ele>289</ele>
        <time>2022-10-22T10:57:29Z</time>
      </trkpt>
      <trkpt lat="43.52402" lon="6.65825">
        <ele>272</ele>
        <time>2022-10-22T10:57:41Z</time>
      </trkpt>
      <trkpt lat="43.52174" lon="6.6578">
        <ele>260</ele>
        <time>2022-10-22T10:58:35Z</time>
      </trkpt>
      <trkpt lat="43.52297" lon="6.65673">
        <ele>243</ele>
        <time>2022-10-22T10:59:09Z</time>
      </trkpt>
      <trkpt lat="43.52384" lon="6.65509">
        <ele>229</ele>
        <time>2022-10-22T10:59:44Z</time>
      </trkpt>
      <trkpt lat="43.5244" lon="6.65499">
        <ele>229</ele>
        <time>2022-10-22T10:59:57Z</time>
      </trkpt>
      <trkpt lat="43.5248" lon="6.65355">
        <ele>219</ele>
        <time>2022-10-22T11:00:23Z</time>
      </trkpt>
      <trkpt lat="43.52522" lon="6.65354">
        <ele>217</ele>
        <time>2022-10-22T11:00:33Z</time>
      </trkpt>
      <trkpt lat="43.52549" lon="6.65304">
        <ele>213</ele>
        <time>2022-10-22T11:00:43Z</time>
      </trkpt>
      <trkpt lat="43.52756" lon="6.65496">
        <ele>213</ele>
        <time>2022-10-22T11:01:42Z</time>
      </trkpt>
      <trkpt lat="43.52813" lon="6.65456">
        <ele>213</ele>
        <time>2022-10-22T11:01:56Z</time>
      </trkpt>
      <trkpt lat="43.52642" lon="6.6533">
        <ele>211</ele>
        <time>2022-10-22T11:02:42Z</time>
      </trkpt>
      <trkpt lat="43.52591" lon="6.65243">
        <ele>214</ele>
        <time>2022-10-22T11:03:01Z</time>
      </trkpt>
      <trkpt lat="43.52456" lon="6.65189">
        <ele>213</ele>
        <time>2022-10-22T11:03:34Z</time>
      </trkpt>
      <trkpt lat="43.52399" lon="6.65135">
        <ele>214</ele>
        <time>2022-10-22T11:03:50Z</time>
      </trkpt>
      <trkpt lat="43.52329" lon="6.65096">
        <ele>215</ele>
        <time>2022-10-22T11:04:07Z</time>
      </trkpt>
      <trkpt lat="43.52296" lon="6.65054">
        <ele>225</ele>
        <time>2022-10-22T11:04:18Z</time>
      </trkpt>
      <trkpt lat="43.5222" lon="6.65038">
        <ele>231</ele>
        <time>2022-10-22T11:04:36Z</time>
      </trkpt>
      <trkpt lat="43.52158" lon="6.6497">
        <ele>250</ele>
        <time>2022-10-22T11:04:54Z</time>
      </trkpt>
      <trkpt lat="43.52101" lon="6.64988">
        <ele>252</ele>
        <time>2022-10-22T11:05:08Z</time>
      </trkpt>
      <trkpt lat="43.52093" lon="6.64982">
        <ele>253</ele>
        <time>2022-10-22T11:05:10Z</time>
      </trkpt>
      <trkpt lat="43.52162" lon="6.64909">
        <ele>262</ele>
        <time>2022-10-22T11:05:30Z</time>
      </trkpt>
      <trkpt lat="43.52083" lon="6.64926">
        <ele>261</ele>
        <time>2022-10-22T11:05:49Z</time>
      </trkpt>
      <trkpt lat="43.52019" lon="6.6472">
        <ele>274</ele>
        <time>2022-10-22T11:06:27Z</time>
      </trkpt>
      <trkpt lat="43.51964" lon="6.64557">
        <ele>278</ele>
        <time>2022-10-22T11:06:57Z</time>
      </trkpt>
      <trkpt lat="43.51972" lon="6.64516">
        <ele>280</ele>
        <time>2022-10-22T11:07:05Z</time>
      </trkpt>
      <trkpt lat="43.52025" lon="6.64426">
        <ele>290</ele>
        <time>2022-10-22T11:07:24Z</time>
      </trkpt>
      <trkpt lat="43.51997" lon="6.64347">
        <ele>285</ele>
        <time>2022-10-22T11:07:39Z</time>
      </trkpt>
      <trkpt lat="43.52115" lon="6.64154">
        <ele>308</ele>
        <time>2022-10-22T11:08:22Z</time>
      </trkpt>
      <trkpt lat="43.52213" lon="6.63967">
        <ele>300</ele>
        <time>2022-10-22T11:09:01Z</time>
      </trkpt>
      <trkpt lat="43.52316" lon="6.63907">
        <ele>306</ele>
        <time>2022-10-22T11:09:27Z</time>
      </trkpt>
      <trkpt lat="43.52286" lon="6.63667">
        <ele>281</ele>
        <time>2022-10-22T11:10:08Z</time>
      </trkpt>
      <trkpt lat="43.52347" lon="6.63579">
        <ele>286</ele>
        <time>2022-10-22T11:10:29Z</time>
      </trkpt>
      <trkpt lat="43.52328" lon="6.63338">
        <ele>284</ele>
        <time>2022-10-22T11:11:10Z</time>
      </trkpt>
      <trkpt lat="43.52411" lon="6.63025">
        <ele>285</ele>
        <time>2022-10-22T11:12:06Z</time>
      </trkpt>
      <trkpt lat="43.52557" lon="6.62819">
        <ele>300</ele>
        <time>2022-10-22T11:12:55Z</time>
      </trkpt>
      <trkpt lat="43.52661" lon="6.62802">
        <ele>307</ele>
        <time>2022-10-22T11:13:20Z</time>
      </trkpt>
      <trkpt lat="43.5266" lon="6.62501">
        <ele>304</ele>
        <time>2022-10-22T11:14:11Z</time>
      </trkpt>
      <trkpt lat="43.5272" lon="6.62669">
        <ele>323</ele>
        <time>2022-10-22T11:14:42Z</time>
      </trkpt>
      <trkpt lat="43.52834" lon="6.62572">
        <ele>343</ele>
        <time>2022-10-22T11:15:14Z</time>
      </trkpt>
      <trkpt lat="43.52817" lon="6.62489">
        <ele>336</ele>
        <time>2022-10-22T11:15:28Z</time>
      </trkpt>
      <trkpt lat="43.52931" lon="6.62317">
        <ele>353</ele>
        <time>2022-10-22T11:16:08Z</time>
      </trkpt>
      <trkpt lat="43.53033" lon="6.62244">
        <ele>357</ele>
        <time>2022-10-22T11:16:34Z</time>
      </trkpt>
      <trkpt lat="43.53081" lon="6.62145">
        <ele>349</ele>
        <time>2022-10-22T11:16:55Z</time>
      </trkpt>
      <trkpt lat="43.53242" lon="6.62218">
        <ele>373</ele>
        <time>2022-10-22T11:17:34Z</time>
      </trkpt>
      <trkpt lat="43.53302" lon="6.62049">
        <ele>367</ele>
        <time>2022-10-22T11:18:06Z</time>
      </trkpt>
      <trkpt lat="43.53375" lon="6.61984">
        <ele>375</ele>
        <time>2022-10-22T11:18:26Z</time>
      </trkpt>
      <trkpt lat="43.53344" lon="6.61896">
        <ele>370</ele>
        <time>2022-10-22T11:18:43Z</time>
      </trkpt>
      <trkpt lat="43.53506" lon="6.61963">
        <ele>394</ele>
        <time>2022-10-22T11:19:22Z</time>
      </trkpt>
      <trkpt lat="43.5354" lon="6.62057">
        <ele>396</ele>
        <time>2022-10-22T11:19:40Z</time>
      </trkpt>
      <trkpt lat="43.53511" lon="6.62104">
        <ele>396</ele>
        <time>2022-10-22T11:19:51Z</time>
      </trkpt>
      <trkpt lat="43.53491" lon="6.62235">
        <ele>403</ele>
        <time>2022-10-22T11:20:13Z</time>
      </trkpt>
      <trkpt lat="43.53547" lon="6.62298">
        <ele>418</ele>
        <time>2022-10-22T11:20:30Z</time>
      </trkpt>
      <trkpt lat="43.53643" lon="6.62302">
        <ele>438</ele>
        <time>2022-10-22T11:20:53Z</time>
      </trkpt>
      <trkpt lat="43.53699" lon="6.62379">
        <ele>457</ele>
        <time>2022-10-22T11:21:11Z</time>
      </trkpt>
      <trkpt lat="43.53708" lon="6.62031">
        <ele>419</ele>
        <time>2022-10-22T11:22:10Z</time>
      </trkpt>
      <trkpt lat="43.53629" lon="6.6204">
        <ele>407</ele>
        <time>2022-10-22T11:22:29Z</time>
      </trkpt>
      <trkpt lat="43.53564" lon="6.62044">
        <ele>398</ele>
        <time>2022-10-22T11:22:44Z</time>
      </trkpt>
      <trkpt lat="43.53531" lon="6.61956">
        <ele>397</ele>
        <time>2022-10-22T11:23:01Z</time>
      </trkpt>
      <trkpt lat="43.53654" lon="6.61909">
        <ele>420</ele>
        <time>2022-10-22T11:23:30Z</time>
      </trkpt>
      <trkpt lat="43.53967" lon="6.61943">
        <ele>455</ele>
        <time>2022-10-22T11:24:44Z</time>
      </trkpt>
      <trkpt lat="43.54004" lon="6.62203">
        <ele>454</ele>
        <time>2022-10-22T11:25:28Z</time>
      </trkpt>
      <trkpt lat="43.53999" lon="6.6228">
        <ele>461</ele>
        <time>2022-10-22T11:25:42Z</time>
      </trkpt>
      <trkpt lat="43.54047" lon="6.6239">
        <ele>442</ele>
        <time>2022-10-22T11:26:03Z</time>
      </trkpt>
      <trkpt lat="43.54047" lon="6.62491">
        <ele>440</ele>
        <time>2022-10-22T11:26:20Z</time>
      </trkpt>
      <trkpt lat="43.54107" lon="6.62757">
        <ele>419</ele>
        <time>2022-10-22T11:27:08Z</time>
      </trkpt>
      <trkpt lat="43.54097" lon="6.62937">
        <ele>421</ele>
        <time>2022-10-22T11:27:38Z</time>
      </trkpt>
      <trkpt lat="43.54033" lon="6.63242">
        <ele>439</ele>
        <time>2022-10-22T11:28:32Z</time>
      </trkpt>
      <trkpt lat="43.53998" lon="6.63248">
        <ele>445</ele>
        <time>2022-10-22T11:28:40Z</time>
      </trkpt>
      <trkpt lat="43.54012" lon="6.63345">
        <ele>431</ele>
        <time>2022-10-22T11:28:57Z</time>
      </trkpt>
      <trkpt lat="43.53937" lon="6.63435">
        <ele>430</ele>
        <time>2022-10-22T11:29:20Z</time>
      </trkpt>
      <trkpt lat="43.53889" lon="6.63452">
        <ele>445</ele>
        <time>2022-10-22T11:29:32Z</time>
      </trkpt>
      <trkpt lat="43.53904" lon="6.6354">
        <ele>421</ele>
        <time>2022-10-22T11:29:47Z</time>
      </trkpt>
      <trkpt lat="43.53813" lon="6.63722">
        <ele>435</ele>
        <time>2022-10-22T11:30:24Z</time>
      </trkpt>
      <trkpt lat="43.53864" lon="6.63782">
        <ele>414</ele>
        <time>2022-10-22T11:30:40Z</time>
      </trkpt>
      <trkpt lat="43.53834" lon="6.6392">
        <ele>426</ele>
        <time>2022-10-22T11:31:04Z</time>
      </trkpt>
      <trkpt lat="43.53911" lon="6.63967">
        <ele>395</ele>
        <time>2022-10-22T11:31:24Z</time>
      </trkpt>
      <trkpt lat="43.53777" lon="6.64124">
        <ele>429</ele>
        <time>2022-10-22T11:32:05Z</time>
      </trkpt>
      <trkpt lat="43.53841" lon="6.64179">
        <ele>415</ele>
        <time>2022-10-22T11:32:23Z</time>
      </trkpt>
      <trkpt lat="43.53981" lon="6.64147">
        <ele>406</ele>
        <time>2022-10-22T11:32:56Z</time>
      </trkpt>
      <trkpt lat="43.54158" lon="6.64003">
        <ele>387</ele>
        <time>2022-10-22T11:33:44Z</time>
      </trkpt>
      <trkpt lat="43.54208" lon="6.64057">
        <ele>391</ele>
        <time>2022-10-22T11:33:59Z</time>
      </trkpt>
      <trkpt lat="43.54317" lon="6.64096">
        <ele>376</ele>
        <time>2022-10-22T11:34:25Z</time>
      </trkpt>
      <trkpt lat="43.54253" lon="6.64321">
        <ele>404</ele>
        <time>2022-10-22T11:35:06Z</time>
      </trkpt>
      <trkpt lat="43.54455" lon="6.64239">
        <ele>386</ele>
        <time>2022-10-22T11:35:55Z</time>
      </trkpt>
      <trkpt lat="43.54559" lon="6.64091">
        <ele>369</ele>
        <time>2022-10-22T11:36:30Z</time>
      </trkpt>
      <trkpt lat="43.54533" lon="6.64227">
        <ele>389</ele>
        <time>2022-10-22T11:36:54Z</time>
      </trkpt>
      <trkpt lat="43.54427" lon="6.64353">
        <ele>419</ele>
        <time>2022-10-22T11:37:26Z</time>
      </trkpt>
      <trkpt lat="43.54293" lon="6.64426">
        <ele>430</ele>
        <time>2022-10-22T11:38:00Z</time>
      </trkpt>
      <trkpt lat="43.5418" lon="6.64475">
        <ele>460</ele>
        <time>2022-10-22T11:38:28Z</time>
      </trkpt>
      <trkpt lat="43.5404" lon="6.64452">
        <ele>490</ele>
        <time>2022-10-22T11:39:01Z</time>
      </trkpt>
      <trkpt lat="43.54035" lon="6.64527">
        <ele>493</ele>
        <time>2022-10-22T11:39:13Z</time>
      </trkpt>
      <trkpt lat="43.53987" lon="6.64503">
        <ele>503</ele>
        <time>2022-10-22T11:39:25Z</time>
      </trkpt>
      <trkpt lat="43.5368" lon="6.64484">
        <ele>509</ele>
        <time>2022-10-22T11:40:37Z</time>
      </trkpt>
      <trkpt lat="43.53512" lon="6.64257">
        <ele>505</ele>
        <time>2022-10-22T11:41:32Z</time>
      </trkpt>
      <trkpt lat="43.53447" lon="6.6436">
        <ele>495</ele>
        <time>2022-10-22T11:41:55Z</time>
      </trkpt>
      <trkpt lat="43.53295" lon="6.64443">
        <ele>465</ele>
        <time>2022-10-22T11:42:33Z</time>
      </trkpt>
      <trkpt lat="43.53207" lon="6.64396">
        <ele>462</ele>
        <time>2022-10-22T11:42:55Z</time>
      </trkpt>
      <trkpt lat="43.5306" lon="6.64503">
        <ele>420</ele>
        <time>2022-10-22T11:43:34Z</time>
      </trkpt>
      <trkpt lat="43.52809" lon="6.64757">
        <ele>350</ele>
        <time>2022-10-22T11:44:47Z</time>
      </trkpt>
      <trkpt lat="43.52638" lon="6.64896">
        <ele>302</ele>
        <time>2022-10-22T11:45:33Z</time>
      </trkpt>
      <trkpt lat="43.52896" lon="6.6507">
        <ele>256</ele>
        <time>2022-10-22T11:46:40Z</time>
      </trkpt>
      <trkpt lat="43.52899" lon="6.65166">
        <ele>243</ele>
        <time>2022-10-22T11:46:57Z</time>
      </trkpt>
      <trkpt lat="43.52862" lon="6.65227">
        <ele>235</ele>
        <time>2022-10-22T11:47:10Z</time>
      </trkpt>
      <trkpt lat="43.52787" lon="6.65156">
        <ele>242</ele>
        <time>2022-10-22T11:47:31Z</time>
      </trkpt>
      <trkpt lat="43.52612" lon="6.65119">
        <ele>247</ele>
        <time>2022-10-22T11:48:13Z</time>
      </trkpt>
      <trkpt lat="43.52478" lon="6.64918">
        <ele>278</ele>
        <time>2022-10-22T11:48:59Z</time>
      </trkpt>
      <trkpt lat="43.52212" lon="6.64907">
        <ele>262</ele>
        <time>2022-10-22T11:50:01Z</time>
      </trkpt>
      <trkpt lat="43.5205" lon="6.64965">
        <ele>250</ele>
        <time>2022-10-22T11:50:40Z</time>
      </trkpt>
      <trkpt lat="43.52051" lon="6.64971">
        <ele>250</ele>
        <time>2022-10-22T11:50:41Z</time>
      </trkpt>
      <trkpt lat="43.51963" lon="6.65043">
        <ele>238</ele>
        <time>2022-10-22T11:51:05Z</time>
      </trkpt>
      <trkpt lat="43.51826" lon="6.65059">
        <ele>221</ele>
        <time>2022-10-22T11:51:37Z</time>
      </trkpt>
      <trkpt lat="43.51795" lon="6.65097">
        <ele>224</ele>
        <time>2022-10-22T11:51:47Z</time>
      </trkpt>
      <trkpt lat="43.51734" lon="6.65116">
        <ele>218</ele>
        <time>2022-10-22T11:52:01Z</time>
      </trkpt>
      <trkpt lat="43.51644" lon="6.65238">
        <ele>209</ele>
        <time>2022-10-22T11:52:31Z</time>
      </trkpt>
      <trkpt lat="43.51662" lon="6.65267">
        <ele>216</ele>
        <time>2022-10-22T11:52:37Z</time>
      </trkpt>
      <trkpt lat="43.51623" lon="6.6526">
        <ele>202</ele>
        <time>2022-10-22T11:52:47Z</time>
      </trkpt>
      <trkpt lat="43.51614" lon="6.6517">
        <ele>194</ele>
        <time>2022-10-22T11:53:02Z</time>
      </trkpt>
      <trkpt lat="43.51596" lon="6.65132">
        <ele>183</ele>
        <time>2022-10-22T11:53:10Z</time>
      </trkpt>
      <trkpt lat="43.51619" lon="6.65082">
        <ele>186</ele>
        <time>2022-10-22T11:53:20Z</time>
      </trkpt>
      <trkpt lat="43.51667" lon="6.65058">
        <ele>197</ele>
        <time>2022-10-22T11:53:32Z</time>
      </trkpt>
      <trkpt lat="43.5181" lon="6.64914">
        <ele>195</ele>
        <time>2022-10-22T11:54:13Z</time>
      </trkpt>
      <trkpt lat="43.51732" lon="6.64832">
        <ele>182</ele>
        <time>2022-10-22T11:54:36Z</time>
      </trkpt>
      <trkpt lat="43.5153" lon="6.64825">
        <ele>136</ele>
        <time>2022-10-22T11:55:23Z</time>
      </trkpt>
      <trkpt lat="43.51444" lon="6.64925">
        <ele>114</ele>
        <time>2022-10-22T11:55:49Z</time>
      </trkpt>
      <trkpt lat="43.51334" lon="6.65136">
        <ele>111</ele>
        <time>2022-10-22T11:56:33Z</time>
      </trkpt>
      <trkpt lat="43.51272" lon="6.65286">
        <ele>112</ele>
        <time>2022-10-22T11:57:03Z</time>
      </trkpt>
      <trkpt lat="43.51162" lon="6.6544">
        <ele>100</ele>
        <time>2022-10-22T11:57:39Z</time>
      </trkpt>
      <trkpt lat="43.51039" lon="6.65421">
        <ele>98</ele>
        <time>2022-10-22T11:58:08Z</time>
      </trkpt>
      <trkpt lat="43.51004" lon="6.6548">
        <ele>86</ele>
        <time>2022-10-22T11:58:21Z</time>
      </trkpt>
      <trkpt lat="43.50846" lon="6.6545">
        <ele>78</ele>
        <time>2022-10-22T11:58:58Z</time>
      </trkpt>
      <trkpt lat="43.50817" lon="6.65454">
        <ele>77</ele>
        <time>2022-10-22T11:59:05Z</time>
      </trkpt>
      <trkpt lat="43.50798" lon="6.65485">
        <ele>77</ele>
        <time>2022-10-22T11:59:12Z</time>
      </trkpt>
      <trkpt lat="43.50757" lon="6.65772">
        <ele>74</ele>
        <time>2022-10-22T12:00:01Z</time>
      </trkpt>
      <trkpt lat="43.50757" lon="6.65896">
        <ele>76</ele>
        <time>2022-10-22T12:00:22Z</time>
      </trkpt>
      <trkpt lat="43.50751" lon="6.66049">
        <ele>79</ele>
        <time>2022-10-22T12:00:48Z</time>
      </trkpt>
      <trkpt lat="43.5073" lon="6.66199">
        <ele>81</ele>
        <time>2022-10-22T12:01:14Z</time>
      </trkpt>
      <trkpt lat="43.50728" lon="6.66284">
        <ele>83</ele>
        <time>2022-10-22T12:01:29Z</time>
      </trkpt>
      <trkpt lat="43.50692" lon="6.66439">
        <ele>79</ele>
        <time>2022-10-22T12:01:56Z</time>
      </trkpt>
      <trkpt lat="43.50679" lon="6.66544">
        <ele>76</ele>
        <time>2022-10-22T12:02:14Z</time>
      </trkpt>
      <trkpt lat="43.50711" lon="6.66584">
        <ele>76</ele>
        <time>2022-10-22T12:02:24Z</time>
      </trkpt>
      <trkpt lat="43.50662" lon="6.66714">
        <ele>75</ele>
        <time>2022-10-22T12:02:49Z</time>
      </trkpt>
      <trkpt lat="43.50566" lon="6.66793">
        <ele>72</ele>
        <time>2022-10-22T12:03:15Z</time>
      </trkpt>
      <trkpt lat="43.50432" lon="6.66687">
        <ele>69</ele>
        <time>2022-10-22T12:03:51Z</time>
      </trkpt>
      <trkpt lat="43.50376" lon="6.6665">
        <ele>69</ele>
        <time>2022-10-22T12:04:06Z</time>
      </trkpt>
      <trkpt lat="43.50378" lon="6.66451">
        <ele>71</ele>
        <time>2022-10-22T12:04:40Z</time>
      </trkpt>
      <trkpt lat="43.50356" lon="6.66371">
        <ele>74</ele>
        <time>2022-10-22T12:04:54Z</time>
      </trkpt>
      <trkpt lat="43.50312" lon="6.66386">
        <ele>73</ele>
        <time>2022-10-22T12:05:05Z</time>
      </trkpt>
      <trkpt lat="43.50208" lon="6.66305">
        <ele>68</ele>
        <time>2022-10-22T12:05:33Z</time>
      </trkpt>
      <trkpt lat="43.50135" lon="6.66477">
        <ele>68</ele>
        <time>2022-10-22T12:06:06Z</time>
      </trkpt>
      <trkpt lat="43.50203" lon="6.66614">
        <ele>76</ele>
        <time>2022-10-22T12:06:34Z</time>
      </trkpt>
      <trkpt lat="43.50169" lon="6.66766">
        <ele>86</ele>
        <time>2022-10-22T12:07:01Z</time>
      </trkpt>
      <trkpt lat="43.50221" lon="6.66914">
        <ele>93</ele>
        <time>2022-10-22T12:07:29Z</time>
      </trkpt>
      <trkpt lat="43.50285" lon="6.66899">
        <ele>92</ele>
        <time>2022-10-22T12:07:44Z</time>
      </trkpt>
      <trkpt lat="43.50309" lon="6.66943">
        <ele>91</ele>
        <time>2022-10-22T12:07:54Z</time>
      </trkpt>
      <trkpt lat="43.50233" lon="6.67256">
        <ele>90</ele>
        <time>2022-10-22T12:08:50Z</time>
      </trkpt>
      <trkpt lat="43.50232" lon="6.67313">
        <ele>89</ele>
        <time>2022-10-22T12:08:59Z</time>
      </trkpt>
      <trkpt lat="43.50155" lon="6.67415">
        <ele>91</ele>
        <time>2022-10-22T12:09:24Z</time>
      </trkpt>
      <trkpt lat="43.50125" lon="6.67511">
        <ele>92</ele>
        <time>2022-10-22T12:09:42Z</time>
      </trkpt>
      <trkpt lat="43.49909" lon="6.67439">
        <ele>84</ele>
        <time>2022-10-22T12:10:34Z</time>
      </trkpt>
      <trkpt lat="43.49798" lon="6.67259">
        <ele>82</ele>
        <time>2022-10-22T12:11:14Z</time>
      </trkpt>
      <trkpt lat="43.49751" lon="6.67319">
        <ele>82</ele>
        <time>2022-10-22T12:11:29Z</time>
      </trkpt>
      <trkpt lat="43.49617" lon="6.67147">
        <ele>83</ele>
        <time>2022-10-22T12:12:12Z</time>
      </trkpt>
      <trkpt lat="43.49505" lon="6.66977">
        <ele>81</ele>
        <time>2022-10-22T12:12:50Z</time>
      </trkpt>
      <trkpt lat="43.4946" lon="6.67093">
        <ele>79</ele>
        <time>2022-10-22T12:13:13Z</time>
      </trkpt>
      <trkpt lat="43.49367" lon="6.67168">
        <ele>77</ele>
        <time>2022-10-22T12:13:38Z</time>
      </trkpt>
      <trkpt lat="43.49287" lon="6.67156">
        <ele>79</ele>
        <time>2022-10-22T12:13:57Z</time>
      </trkpt>
      <trkpt lat="43.49252" lon="6.67183">
        <ele>80</ele>
        <time>2022-10-22T12:14:06Z</time>
      </trkpt>
      <trkpt lat="43.49281" lon="6.67269">
        <ele>78</ele>
        <time>2022-10-22T12:14:22Z</time>
      </trkpt>
      <trkpt lat="43.49256" lon="6.67351">
        <ele>77</ele>
        <time>2022-10-22T12:14:37Z</time>
      </trkpt>
      <trkpt lat="43.49311" lon="6.67501">
        <ele>71</ele>
        <time>2022-10-22T12:15:06Z</time>
      </trkpt>
      <trkpt lat="43.49189" lon="6.6763">
        <ele>68</ele>
        <time>2022-10-22T12:15:42Z</time>
      </trkpt>
      <trkpt lat="43.49115" lon="6.67711">
        <ele>66</ele>
        <time>2022-10-22T12:16:04Z</time>
      </trkpt>
      <trkpt lat="43.49054" lon="6.67763">
        <ele>64</ele>
        <time>2022-10-22T12:16:20Z</time>
      </trkpt>
      <trkpt lat="43.48968" lon="6.6769">
        <ele>64</ele>
        <time>2022-10-22T12:16:44Z</time>
      </trkpt>
      <trkpt lat="43.48909" lon="6.67754">
        <ele>63</ele>
        <time>2022-10-22T12:17:02Z</time>
      </trkpt>
      <trkpt lat="43.48859" lon="6.67915">
        <ele>62</ele>
        <time>2022-10-22T12:17:31Z</time>
      </trkpt>
      <trkpt lat="43.48774" lon="6.67969">
        <ele>64</ele>
        <time>2022-10-22T12:17:53Z</time>
      </trkpt>
      <trkpt lat="43.48715" lon="6.67945">
        <ele>67</ele>
        <time>2022-10-22T12:18:07Z</time>
      </trkpt>
      <trkpt lat="43.48612" lon="6.68014">
        <ele>68</ele>
        <time>2022-10-22T12:18:34Z</time>
      </trkpt>
      <trkpt lat="43.48487" lon="6.68035">
        <ele>72</ele>
        <time>2022-10-22T12:19:04Z</time>
      </trkpt>
      <trkpt lat="43.48394" lon="6.68379">
        <ele>76</ele>
        <time>2022-10-22T12:20:06Z</time>
      </trkpt>
      <trkpt lat="43.48361" lon="6.68531">
        <ele>73</ele>
        <time>2022-10-22T12:20:33Z</time>
      </trkpt>
      <trkpt lat="43.48283" lon="6.68773">
        <ele>62</ele>
        <time>2022-10-22T12:21:18Z</time>
      </trkpt>
      <trkpt lat="43.48125" lon="6.68737">
        <ele>62</ele>
        <time>2022-10-22T12:21:55Z</time>
      </trkpt>
      <trkpt lat="43.48025" lon="6.68859">
        <ele>62</ele>
        <time>2022-10-22T12:22:26Z</time>
      </trkpt>
      <trkpt lat="43.48114" lon="6.68885">
        <ele>60</ele>
        <time>2022-10-22T12:22:47Z</time>
      </trkpt>
      <trkpt lat="43.48179" lon="6.68879">
        <ele>58</ele>
        <time>2022-10-22T12:23:03Z</time>
      </trkpt>
      <trkpt lat="43.48344" lon="6.69046">
        <ele>47</ele>
        <time>2022-10-22T12:23:50Z</time>
      </trkpt>
      <trkpt lat="43.48397" lon="6.69134">
        <ele>46</ele>
        <time>2022-10-22T12:24:10Z</time>
      </trkpt>
      <trkpt lat="43.48436" lon="6.69128">
        <ele>48</ele>
        <time>2022-10-22T12:24:19Z</time>
      </trkpt>
      <trkpt lat="43.48564" lon="6.69231">
        <ele>53</ele>
        <time>2022-10-22T12:24:54Z</time>
      </trkpt>
      <trkpt lat="43.48788" lon="6.6922">
        <ele>53</ele>
        <time>2022-10-22T12:25:46Z</time>
      </trkpt>
      <trkpt lat="43.48852" lon="6.69396">
        <ele>57</ele>
        <time>2022-10-22T12:26:19Z</time>
      </trkpt>
      <trkpt lat="43.48836" lon="6.69756">
        <ele>63</ele>
        <time>2022-10-22T12:27:20Z</time>
      </trkpt>
      <trkpt lat="43.48772" lon="6.69831">
        <ele>64</ele>
        <time>2022-10-22T12:27:40Z</time>
      </trkpt>
      <trkpt lat="43.48659" lon="6.69829">
        <ele>71</ele>
        <time>2022-10-22T12:28:06Z</time>
      </trkpt>
      <trkpt lat="43.48529" lon="6.70014">
        <ele>62</ele>
        <time>2022-10-22T12:28:50Z</time>
      </trkpt>
      <trkpt lat="43.48444" lon="6.70037">
        <ele>54</ele>
        <time>2022-10-22T12:29:10Z</time>
      </trkpt>
      <trkpt lat="43.48341" lon="6.70091">
        <ele>47</ele>
        <time>2022-10-22T12:29:36Z</time>
      </trkpt>
      <trkpt lat="43.48542" lon="6.70173">
        <ele>50</ele>
        <time>2022-10-22T12:30:25Z</time>
      </trkpt>
      <trkpt lat="43.48554" lon="6.70314">
        <ele>47</ele>
        <time>2022-10-22T12:30:49Z</time>
      </trkpt>
      <trkpt lat="43.48543" lon="6.70381">
        <ele>46</ele>
        <time>2022-10-22T12:31:01Z</time>
      </trkpt>
      <trkpt lat="43.48556" lon="6.70462">
        <ele>45</ele>
        <time>2022-10-22T12:31:15Z</time>
      </trkpt>
      <trkpt lat="43.48532" lon="6.7048">
        <ele>45</ele>
        <time>2022-10-22T12:31:21Z</time>
      </trkpt>
      <trkpt lat="43.48504" lon="6.70586">
        <ele>44</ele>
        <time>2022-10-22T12:31:40Z</time>
      </trkpt>
      <trkpt lat="43.48511" lon="6.70642">
        <ele>46</ele>
        <time>2022-10-22T12:31:50Z</time>
      </trkpt>
      <trkpt lat="43.48528" lon="6.70643">
        <ele>47</ele>
        <time>2022-10-22T12:31:54Z</time>
      </trkpt>
      <trkpt lat="43.48545" lon="6.70651">
        <ele>49</ele>
        <time>2022-10-22T12:31:58Z</time>
      </trkpt>
      <trkpt lat="43.48573" lon="6.70689">
        <ele>51</ele>
        <time>2022-10-22T12:32:07Z</time>
      </trkpt>
      <trkpt lat="43.48594" lon="6.70712">
        <ele>52</ele>
        <time>2022-10-22T12:32:13Z</time>
      </trkpt>
      <trkpt lat="43.4864" lon="6.7074">
        <ele>54</ele>
        <time>2022-10-22T12:32:25Z</time>
      </trkpt>
      <trkpt lat="43.48645" lon="6.70767">
        <ele>55</ele>
        <time>2022-10-22T12:32:30Z</time>
      </trkpt>
      <trkpt lat="43.48638" lon="6.70822">
        <ele>55</ele>
        <time>2022-10-22T12:32:39Z</time>
      </trkpt>
      <trkpt lat="43.48641" lon="6.70834">
        <ele>55</ele>
        <time>2022-10-22T12:32:42Z</time>
      </trkpt>
      <trkpt lat="43.48635" lon="6.70869">
        <ele>56</ele>
        <time>2022-10-22T12:32:48Z</time>
      </trkpt>
      <trkpt lat="43.48667" lon="6.7095">
        <ele>59</ele>
        <time>2022-10-22T12:33:03Z</time>
      </trkpt>
      <trkpt lat="43.48677" lon="6.71002">
        <ele>61</ele>
        <time>2022-10-22T12:33:12Z</time>
      </trkpt>
      <trkpt lat="43.48694" lon="6.71036">
        <ele>64</ele>
        <time>2022-10-22T12:33:19Z</time>
      </trkpt>
      <trkpt lat="43.48702" lon="6.71078">
        <ele>66</ele>
        <time>2022-10-22T12:33:27Z</time>
      </trkpt>
      <trkpt lat="43.48737" lon="6.7111">
        <ele>72</ele>
        <time>2022-10-22T12:33:37Z</time>
      </trkpt>
      <trkpt lat="43.48778" lon="6.71001">
        <ele>67</ele>
        <time>2022-10-22T12:33:57Z</time>
      </trkpt>
      <trkpt lat="43.48799" lon="6.70758">
        <ele>57</ele>
        <time>2022-10-22T12:34:39Z</time>
      </trkpt>
      <trkpt lat="43.48826" lon="6.7072">
        <ele>56</ele>
        <time>2022-10-22T12:34:48Z</time>
      </trkpt>
      <trkpt lat="43.48886" lon="6.70713">
        <ele>53</ele>
        <time>2022-10-22T12:35:02Z</time>
      </trkpt>
      <trkpt lat="43.48972" lon="6.70737">
        <ele>53</ele>
        <time>2022-10-22T12:35:22Z</time>
      </trkpt>
      <trkpt lat="43.4903" lon="6.70875">
        <ele>61</ele>
        <time>2022-10-22T12:35:49Z</time>
      </trkpt>
      <trkpt lat="43.49027" lon="6.70955">
        <ele>64</ele>
        <time>2022-10-22T12:36:03Z</time>
      </trkpt>
      <trkpt lat="43.49048" lon="6.71007">
        <ele>65</ele>
        <time>2022-10-22T12:36:13Z</time>
      </trkpt>
      <trkpt lat="43.49058" lon="6.71043">
        <ele>67</ele>
        <time>2022-10-22T12:36:20Z</time>
      </trkpt>
      <trkpt lat="43.49037" lon="6.71096">
        <ele>68</ele>
        <time>2022-10-22T12:36:30Z</time>
      </trkpt>
      <trkpt lat="43.49035" lon="6.71123">
        <ele>70</ele>
        <time>2022-10-22T12:36:34Z</time>
      </trkpt>
      <trkpt lat="43.49049" lon="6.71164">
        <ele>71</ele>
        <time>2022-10-22T12:36:42Z</time>
      </trkpt>
    </trkseg>
  </trk>
</gpx>